Baywood Park, California
Current Conditions -  °F | °C
As of 2:56 AM on Sunday 23 Nov 2014 (Local Time) from KSBP Reporting Station
Clear Clear  
Wind Chill: 57°   Ceiling: Unl
Heat Index: 57°   Visibility: 10mi
Dew Point: 49°   Wind: 18mph
Humidity: 74%   Direction: 340°NNW
Pressure: 30.16"   Gusts: NA
Location:  35.2818°N, 120.831°W
Report Text: KSBP 231056Z AUTO 34016KT 10SM CLR 14/09 A3016 RMK AO2 SLP210 T01390094
Loading
Personal Weather Stations






























Interactive Weather Map New forecast layout! Learn more

10-Day Weather Forecast

Advertisements
Track Severe Weather on mobile